Accueil
METAR-TAF:

METAR-TAF

Aéroports :

Aéroport international de Lattaquié

Lattaquié, Syrie

latitude: 35-32N, longitude: 035-46E, altitude: 7 m

Observation

Le bulletin a été fait il y a 26 minutes, à 07:00 UTC
Vent 2 kt de nord/nord-ouest
Température 25°C
Humidité 74%
Pression 1013 hPa
Visibilité: 6000 m
Quelques nuages à une hauteur de 3000 ft
Ciel couvert à une hauteur de 10000 ft

METAR: OSLK 170700Z 34002KT 6000 FEW030 OVC100 25/20 Q1013

Heure: 10:26 (07:26 UTC)

Prévision

Le bulletin a été fait il y a 2 heures et 56 minutes, à 04:30 UTC
Prévision valable du 17 à 06 UTC au 18 à 06 UTC
Vent 15 kt de ouest
Visibilité 10 km ou plus
Nuages épars à une hauteur de 3000 ft
Temporairement
du 17 à 18 UTC au 18 à 05 UTC
Vent 5 kt de nord/nord-est

TAF: OSLK 170430Z 1706/1806 28015KT 9999 SCT030 TEMPO 1718/1805 03005KT

Observations et prévisions météorologiques de plus de 4000 aéroports (messages METAR et TAF).

Les stations disponibles sont représentées par des disques jaunes et rouges sur la carte.

Passer la souris dessus pour voir le nom de la station.

Cliquer dessus pour voir les observations et prévisions météorologiques.

Pour changer de carte: cliquez sur les boutons verts avec une croix noire pour zoomer, sur le bouton vert avec un tiret pour effectuer un zoom arrière, ou sur les flèches vertes pour les cartes adjacentes.


METAR-TAF: